»·PEaware :: PHKIM KDLS-KEUL

PHKIM :: KDLS-KEUL

FLIGHT INFORMATION

Flight Status: Arrived
Operator: Unknown
More flights by this operator :: More flights under this callsign
Pilot: Kim B. (19519)
Aircraft: DORNIER 228
(D228)
More flights by this aircraft type
Origin: KDLS Columbia Gorge Regl/The Dalle
United States
Destination: KEUL Caldwell Industrial
United States
More flights between these airports :: More routes between these airports
Route: +DALLS1 LTJ V497 IMB V500 DAGNE
File this flight plan on PilotEdge
Remarks:
Altitude:
(Current/Filed)
11,000ft
Speed:
(Current/Filed)
200kts
Departed: 20-Oct-18 04:17 PM
Arrived: 20-Oct-18 05:33 PM
Distance/Time
Traveled:
227nm/1:15
Distance/Time
To Go:
Arrived

Flight Plot

Page will automatically refresh every two minutes.

Flight plan parsing failed; only flown route is shown


Map Options




Map Legend


Flown Route
Filed Route
Departure Airport
Arrival Airport
Navaid (VOR, NDB)
Fix

Horizontal Profiles

Position Reports

Time Latitude Longitude Heading Altitude Ground
Speed
20-Oct-18 16:09 45.618945 -121.172298 113 220ft 0kts
20-Oct-18 16:10 45.618923 -121.172222 113 221ft 4kts
20-Oct-18 16:11 45.617344 -121.169902 145 227ft 3kts
20-Oct-18 16:12 45.615173 -121.166385 145 235ft 23kts
20-Oct-18 16:13 45.612460 -121.163643 144 241ft 0kts
20-Oct-18 16:14 45.612460 -121.163643 144 241ft 0kts
20-Oct-18 16:15 45.612201 -121.163240 104 241ft 2kts
20-Oct-18 16:16 45.612185 -121.163130 101 241ft 0kts
20-Oct-18 16:17 45.612124 -121.162492 80 241ft 0kts
20-Oct-18 16:18 45.612124 -121.162492 80 241ft 0kts
20-Oct-18 16:19 45.620456 -121.170258 327 901ft 89kts
20-Oct-18 16:20 45.657704 -121.175447 48 2108ft 189kts
20-Oct-18 16:21 45.636777 -121.113306 156 2887ft 200kts
20-Oct-18 16:22 45.582526 -121.117755 187 3834ft 195kts
20-Oct-18 16:23 45.551956 -121.158958 303 4775ft 196kts
20-Oct-18 16:24 45.600564 -121.144533 18 5752ft 204kts
20-Oct-18 16:25 45.654774 -121.123979 14 6757ft 200kts
20-Oct-18 16:26 45.708011 -121.103009 14 7749ft 199kts
20-Oct-18 16:27 45.697266 -121.082762 193 8800ft 187kts
20-Oct-18 16:28 45.657819 -121.035002 133 9800ft 198kts
20-Oct-18 16:29 45.620025 -120.976372 134 10808ft 202kts
20-Oct-18 16:30 45.579257 -120.916686 138 11101ft 223kts
20-Oct-18 16:31 45.533516 -120.856223 138 11097ft 228kts
20-Oct-18 16:32 45.486970 -120.794702 138 11097ft 228kts
20-Oct-18 16:33 45.440518 -120.733435 138 11097ft 228kts
20-Oct-18 16:34 45.393896 -120.672092 138 11097ft 228kts
20-Oct-18 16:35 45.355557 -120.621755 138 11097ft 228kts
20-Oct-18 16:36 45.308942 -120.560682 138 11097ft 228kts
20-Oct-18 16:37 45.273107 -120.513829 138 11097ft 228kts
20-Oct-18 16:38 45.232961 -120.461439 138 11097ft 228kts
20-Oct-18 16:39 45.186725 -120.401233 138 11097ft 228kts
20-Oct-18 16:40 45.139992 -120.340647 139 11096ft 228kts
20-Oct-18 16:41 45.093555 -120.281013 139 11096ft 227kts
20-Oct-18 16:42 45.047497 -120.221444 139 11097ft 225kts
20-Oct-18 16:43 45.001710 -120.162396 138 11104ft 220kts
20-Oct-18 16:44 44.956646 -120.104479 136 11111ft 219kts
20-Oct-18 16:45 44.910814 -120.048868 140 11121ft 219kts
20-Oct-18 16:46 44.870301 -120.006537 144 11132ft 219kts
20-Oct-18 16:47 44.810082 -119.953627 149 11141ft 219kts
20-Oct-18 16:48 44.779667 -119.898940 123 11073ft 220kts
20-Oct-18 16:49 44.740284 -119.833264 133 11069ft 219kts
20-Oct-18 16:50 44.691172 -119.761154 132 11069ft 219kts
20-Oct-18 16:51 44.655718 -119.710240 133 11069ft 219kts
20-Oct-18 16:52 44.626247 -119.638697 110 11070ft 218kts
20-Oct-18 16:53 44.604310 -119.559206 111 11069ft 218kts
20-Oct-18 16:54 44.581684 -119.480070 111 11069ft 218kts
20-Oct-18 16:55 44.558811 -119.400966 111 11069ft 218kts
20-Oct-18 16:56 44.535770 -119.322336 112 11070ft 218kts
20-Oct-18 16:57 44.512701 -119.244068 112 11070ft 218kts
20-Oct-18 16:58 44.489600 -119.165243 112 11070ft 218kts
20-Oct-18 16:59 44.466497 -119.086656 112 11070ft 218kts
20-Oct-18 17:00 44.443263 -119.007905 112 11070ft 218kts
20-Oct-18 17:01 44.420136 -118.929643 112 11069ft 218kts
20-Oct-18 17:02 44.396950 -118.851405 113 11069ft 217kts
20-Oct-18 17:03 44.373773 -118.773460 113 11069ft 217kts
20-Oct-18 17:04 44.350540 -118.695589 113 11069ft 217kts
20-Oct-18 17:05 44.327412 -118.618280 113 11041ft 217kts
20-Oct-18 17:06 44.308448 -118.555075 113 11041ft 217kts
20-Oct-18 17:07 44.285879 -118.480050 113 11042ft 212kts
20-Oct-18 17:08 44.262853 -118.403719 113 11041ft 214kts
20-Oct-18 17:09 44.239759 -118.327933 114 11042ft 215kts
20-Oct-18 17:10 44.216106 -118.251033 114 11053ft 215kts
20-Oct-18 17:11 44.192733 -118.174127 114 11067ft 215kts
20-Oct-18 17:12 44.169479 -118.098298 114 11073ft 216kts
20-Oct-18 17:13 44.145973 -118.021451 114 11078ft 216kts
20-Oct-18 17:14 44.122564 -117.945362 114 11077ft 216kts
20-Oct-18 17:15 44.098877 -117.868475 114 11075ft 216kts
20-Oct-18 17:16 44.075202 -117.791861 114 11072ft 216kts
20-Oct-18 17:17 44.051418 -117.715133 114 11070ft 216kts
20-Oct-18 17:18 44.027708 -117.638849 114 11069ft 216kts
20-Oct-18 17:19 44.003804 -117.562181 114 11068ft 215kts
20-Oct-18 17:20 43.979931 -117.485853 114 11068ft 215kts
20-Oct-18 17:21 43.956015 -117.409590 114 11068ft 215kts
20-Oct-18 17:22 43.931897 -117.333308 115 11069ft 215kts
20-Oct-18 17:23 43.907566 -117.257303 114 10940ft 221kts
20-Oct-18 17:24 43.882508 -117.180051 114 10020ft 210kts
20-Oct-18 17:25 43.859312 -117.108063 113 9010ft 201kts
20-Oct-18 17:26 43.837284 -117.038718 112 8024ft 199kts
20-Oct-18 17:27 43.809703 -116.974811 123 7037ft 195kts
20-Oct-18 17:28 43.779835 -116.912279 123 6036ft 198kts
20-Oct-18 17:29 43.750697 -116.847595 122 5052ft 197kts
20-Oct-18 17:30 43.724182 -116.788911 125 4892ft 174kts
20-Oct-18 17:31 43.701894 -116.739049 116 3874ft 133kts
20-Oct-18 17:32 43.684010 -116.696972 126 3568ft 112kts
20-Oct-18 17:33 43.661239 -116.662476 136 3054ft 137kts
20-Oct-18 17:34 43.642932 -116.637300 134 2418ft 41kts
20-Oct-18 17:35 43.641636 -116.637018 226 2417ft 0kts
20-Oct-18 17:36 43.640158 -116.636670 136 2417ft 11kts
20-Oct-18 17:37 43.638912 -116.637717 88 2417ft 0kts
20-Oct-18 17:38 43.638914 -116.637867 82 2417ft 0kts
20-Oct-18 17:39 43.638914 -116.637867 82 2417ft 0kts
20-Oct-18 17:40 43.638914 -116.637867 82 2417ft 0kts
20-Oct-18 17:41 43.638914 -116.637867 82 2417ft 0kts
20-Oct-18 17:42 43.638914 -116.637867 82 2417ft 0kts
20-Oct-18 17:43 43.638914 -116.637867 82 2417ft 0kts
20-Oct-18 17:44 43.638914 -116.637867 82 2417ft 0kts
20-Oct-18 17:45 43.638914 -116.637867 82 2417ft 0kts

Navigation Log

Ident Type
Flight plan parsing failed, navigation log unavailable